Weather at Blue Grass Airport

Public forecast

Using degrees Fahrenheit for public forecast. Weather courtesy of forecast.io.

Current aviation weather report (METAR) for Blue Grass Airport

Retrieved 2021/07/26 21:54 UTC (12 minutes ago):

KLEX 262154Z 03011G14KT 10SM SCT055 32/20 A2997 RMK AO2 SLP137 T03170200

Aviation forecast (TAF) for Blue Grass Airport

Retrieved 2021/07/26 18:22 UTC (4 hours ago):

TAF KLEX 261720Z 2618/2718 36006KT P6SM SCT035 FM270200 04005KT P6SM SCT250